Rodange, Luxembourg
Current Conditions -  °F | °C
As of 4:20 AM on Saturday 29 Nov 2014 (Local Time) from ELLX Reporting Station
Broken Clouds Broken Clouds  
Wind Chill: 29°   Ceiling: 400
Heat Index: 36°   Visibility: 2.1mi
Dew Point: 34°   Wind: 8mph
Humidity: 93%   Direction: 70°ENE
Pressure: 29.85"   Gusts: NA
Location:  49.55°N, 5.84°E
Report Text: ELLX 290320Z 07007KT 030V100 3500 BKN004 02/01 Q1011 NOSIG
Loading
Personal Weather Stations






























Interactive Weather Map New forecast layout! Learn more

10-Day Weather Forecast

Advertisements
Track Severe Weather on mobile